Time;durP1;ratioP1;P1;durP2;ratioP2;P2;SDS_P1;SDS_P2;PMS_P1;PMS_P2;Temp;Humidity;BMP_temperature;BMP_pressure;BME280_temperature;BME280_humidity;BME280_pressure;Samples;Min_cycle;Max_cycle;Signal;HPM_P1;HPM_P2
2023/01/21 00:00:58;;;;;;;0.10;0.10;;;;;;;;;;5016933;28;20204;-76
2023/01/21 00:03:26;;;;;;;0.10;0.10;;;;;;;;;;5016951;28;20212;-76
2023/01/21 00:05:57;;;;;;;0.10;0.10;;;;;;;;;;5017239;28;20291;-76
2023/01/21 00:08:25;;;;;;;0.10;0.10;;;;;;;;;;5016987;28;20315;-76
2023/01/21 00:10:54;;;;;;;0.10;0.10;;;;;;;;;;5016935;28;20260;-76
2023/01/21 00:13:22;;;;;;;0.10;0.10;;;;;;;;;;5017096;28;20202;-76
2023/01/21 00:15:54;;;;;;;0.10;0.10;;;;;;;;;;5017625;28;20262;-76
2023/01/21 00:18:23;;;;;;;0.10;0.10;;;;;;;;;;5017159;28;20270;-76
2023/01/21 00:20:51;;;;;;;0.20;0.20;;;;;;;;;;5016707;28;20241;-76
2023/01/21 00:23:20;;;;;;;0.17;0.17;;;;;;;;;;5017436;28;20621;-78
2023/01/21 00:25:48;;;;;;;0.10;0.10;;;;;;;;;;5025902;28;20209;-76
2023/01/21 00:28:17;;;;;;;0.20;0.20;;;;;;;;;;5016960;28;20267;-76
2023/01/21 00:30:46;;;;;;;0.20;0.20;;;;;;;;;;5016094;28;20255;-77
2023/01/21 00:33:15;;;;;;;0.10;0.10;;;;;;;;;;5016058;28;20691;-76
2023/01/21 00:35:44;;;;;;;0.17;0.17;;;;;;;;;;5016330;28;20611;-77
2023/01/21 00:38:12;;;;;;;0.20;0.20;;;;;;;;;;5015488;28;20710;-76
2023/01/21 00:40:41;;;;;;;0.20;0.20;;;;;;;;;;5015789;28;20237;-76
2023/01/21 00:43:10;;;;;;;0.10;0.10;;;;;;;;;;5016440;28;20200;-78
2023/01/21 00:45:38;;;;;;;0.10;0.10;;;;;;;;;;5016315;28;20213;-76
2023/01/21 00:48:06;;;;;;;0.10;0.10;;;;;;;;;;5016335;28;20270;-76
2023/01/21 00:50:39;;;;;;;0.10;0.10;;;;;;;;;;5016394;28;20721;-77
2023/01/21 00:53:08;;;;;;;0.10;0.10;;;;;;;;;;5021171;28;20247;-76
2023/01/21 00:55:36;;;;;;;0.20;0.20;;;;;;;;;;5036069;28;20669;-76
2023/01/21 00:58:05;;;;;;;0.10;0.10;;;;;;;;;;5035864;28;20228;-76
2023/01/21 01:00:33;;;;;;;0.20;0.20;;;;;;;;;;5036088;28;20207;-77
2023/01/21 01:03:02;;;;;;;0.17;0.17;;;;;;;;;;5016865;28;20204;-76
2023/01/21 01:05:30;;;;;;;0.10;0.10;;;;;;;;;;5015890;28;20229;-77
2023/01/21 01:08:00;;;;;;;0.20;0.20;;;;;;;;;;5015047;28;20247;-77
2023/01/21 01:10:28;;;;;;;0.10;0.10;;;;;;;;;;5016137;28;20201;-76
2023/01/21 01:12:57;;;;;;;0.10;0.10;;;;;;;;;;5015732;28;20228;-77
2023/01/21 01:15:25;;;;;;;0.10;0.10;;;;;;;;;;5015635;28;20205;-77
2023/01/21 01:17:54;;;;;;;0.10;0.10;;;;;;;;;;5015762;28;20260;-76
2023/01/21 01:20:22;;;;;;;0.20;0.20;;;;;;;;;;5015699;28;20205;-76
2023/01/21 01:22:50;;;;;;;0.10;0.10;;;;;;;;;;5016414;28;20254;-76
2023/01/21 01:25:20;;;;;;;0.10;0.10;;;;;;;;;;5014751;28;20209;-77
2023/01/21 01:27:49;;;;;;;0.10;0.10;;;;;;;;;;5015926;28;20229;-77
2023/01/21 01:30:18;;;;;;;0.10;0.10;;;;;;;;;;5015683;28;20248;-77
2023/01/21 01:32:46;;;;;;;0.20;0.20;;;;;;;;;;5015955;28;20698;-77
2023/01/21 01:35:15;;;;;;;0.10;0.10;;;;;;;;;;5014918;28;20233;-77
2023/01/21 01:37:43;;;;;;;0.10;0.10;;;;;;;;;;5015547;28;20233;-76
2023/01/21 01:40:12;;;;;;;0.10;0.10;;;;;;;;;;5015049;28;20213;-76
2023/01/21 01:42:42;;;;;;;0.10;0.10;;;;;;;;;;5015318;28;20240;-76
2023/01/21 01:45:17;;;;;;;0.10;0.10;;;;;;;;;;5015035;28;20204;-77
2023/01/21 01:47:48;;;;;;;0.10;0.10;;;;;;;;;;5015850;28;20228;-76
2023/01/21 01:50:18;;;;;;;0.10;0.10;;;;;;;;;;5015634;28;20243;-76
2023/01/21 01:52:47;;;;;;;0.10;0.10;;;;;;;;;;5014873;28;20276;-77
2023/01/21 01:55:15;;;;;;;0.10;0.10;;;;;;;;;;5015074;28;20209;-76
2023/01/21 01:57:47;;;;;;;0.20;0.20;;;;;;;;;;5015367;28;20244;-77
2023/01/21 02:00:16;;;;;;;0.20;0.20;;;;;;;;;;5015169;28;20193;-76
2023/01/21 02:03:43;;;;;;;0.10;0.10;;;;;;;;;;5015387;28;20196;-76
2023/01/21 02:05:35;;;;;;;0.10;0.10;;;;;;;;;;5014467;28;20224;-76
2023/01/21 02:08:03;;;;;;;0.10;0.10;;;;;;;;;;5015450;28;20255;-77
2023/01/21 02:10:33;;;;;;;0.13;0.13;;;;;;;;;;5015029;28;20198;-76
2023/01/21 02:13:03;;;;;;;0.10;0.10;;;;;;;;;;5015041;28;20274;-76
2023/01/21 02:15:36;;;;;;;0.20;0.20;;;;;;;;;;5014871;28;20216;-77
2023/01/21 02:18:10;;;;;;;0.10;0.10;;;;;;;;;;5015148;28;20253;-77
2023/01/21 02:20:57;;;;;;;0.10;0.10;;;;;;;;;;5019778;28;20269;-77
2023/01/21 02:23:29;;;;;;;0.20;0.20;;;;;;;;;;5014644;28;20206;-77
2023/01/21 02:26:11;;;;;;;0.10;0.10;;;;;;;;;;5015131;28;20197;-76
2023/01/21 02:29:06;;;;;;;0.20;0.20;;;;;;;;;;5015482;28;20990;-76
2023/01/21 02:31:54;;;;;;;0.10;0.10;;;;;;;;;;5015570;28;20247;-76
2023/01/21 02:34:28;;;;;;;0.20;0.20;;;;;;;;;;5014128;28;20207;-76
2023/01/21 02:37:02;;;;;;;0.10;0.10;;;;;;;;;;5014669;28;20193;-77
2023/01/21 02:39:36;;;;;;;0.10;0.10;;;;;;;;;;5014706;28;20711;-76
2023/01/21 02:42:06;;;;;;;0.10;0.10;;;;;;;;;;5015037;28;20200;-77
2023/01/21 02:44:38;;;;;;;0.10;0.10;;;;;;;;;;5014655;28;20207;-76
2023/01/21 02:47:12;;;;;;;0.10;0.10;;;;;;;;;;5028426;28;20531;-76
2023/01/21 02:49:43;;;;;;;0.10;0.10;;;;;;;;;;5035383;28;20538;-76
2023/01/21 02:52:17;;;;;;;0.10;0.10;;;;;;;;;;5035010;28;20189;-77
2023/01/21 02:54:50;;;;;;;0.20;0.20;;;;;;;;;;5034699;28;20230;-76
2023/01/21 02:57:20;;;;;;;0.10;0.10;;;;;;;;;;5034662;28;20208;-76
2023/01/21 02:59:50;;;;;;;0.10;0.10;;;;;;;;;;5029914;28;20205;-77
2023/01/21 03:02:25;;;;;;;0.10;0.10;;;;;;;;;;5017274;28;20214;-77
2023/01/21 03:04:59;;;;;;;0.10;0.10;;;;;;;;;;5018282;28;20634;-77
2023/01/21 03:07:29;;;;;;;0.20;0.20;;;;;;;;;;5018857;28;20252;-77
2023/01/21 03:10:01;;;;;;;0.10;0.10;;;;;;;;;;5018345;28;20665;-77
2023/01/21 03:12:31;;;;;;;0.10;0.10;;;;;;;;;;5018230;28;20284;-77
2023/01/21 03:17:51;;;;;;;0.10;0.10;;;;;;;;;;5018013;28;20645;-77
2023/01/21 03:20:24;;;;;;;0.10;0.10;;;;;;;;;;5018067;28;20338;-77
2023/01/21 03:22:55;;;;;;;0.10;0.10;;;;;;;;;;5018010;28;20225;-77
2023/01/21 03:25:25;;;;;;;0.10;0.10;;;;;;;;;;5017600;28;20207;-77
2023/01/21 03:27:54;;;;;;;0.10;0.10;;;;;;;;;;5017764;28;20258;-77
2023/01/21 03:30:25;;;;;;;0.10;0.10;;;;;;;;;;5018200;28;20246;-77
2023/01/21 03:32:55;;;;;;;0.10;0.10;;;;;;;;;;5017762;28;20277;-77
2023/01/21 03:35:27;;;;;;;0.10;0.10;;;;;;;;;;5018087;28;20247;-77
2023/01/21 03:37:57;;;;;;;0.10;0.10;;;;;;;;;;5017751;28;20265;-77
2023/01/21 03:40:27;;;;;;;0.10;0.10;;;;;;;;;;5018412;28;20689;-77
2023/01/21 03:42:55;;;;;;;0.10;0.10;;;;;;;;;;5017660;28;20203;-77
2023/01/21 03:45:32;;;;;;;0.10;0.10;;;;;;;;;;5017272;28;20219;-77
2023/01/21 03:48:05;;;;;;;0.10;0.10;;;;;;;;;;5017308;28;20231;-77
2023/01/21 03:50:37;;;;;;;0.10;0.10;;;;;;;;;;5017531;28;20234;-77
2023/01/21 03:53:05;;;;;;;0.10;0.10;;;;;;;;;;5017389;28;20211;-78
2023/01/21 03:55:35;;;;;;;0.10;0.10;;;;;;;;;;5017315;28;20208;-77
2023/01/21 03:58:03;;;;;;;0.10;0.10;;;;;;;;;;5017432;28;20375;-77
2023/01/21 04:00:32;;;;;;;0.10;0.10;;;;;;;;;;5017632;28;20636;-77
2023/01/21 04:03:00;;;;;;;0.10;0.10;;;;;;;;;;5017450;28;20719;-77
2023/01/21 04:05:29;;;;;;;0.10;0.10;;;;;;;;;;5016916;28;20203;-77
2023/01/21 04:07:58;;;;;;;0.10;0.10;;;;;;;;;;5017200;28;20224;-77
2023/01/21 04:10:27;;;;;;;0.10;0.10;;;;;;;;;;5017374;28;20262;-78
2023/01/21 04:12:55;;;;;;;0.10;0.10;;;;;;;;;;5016784;28;20241;-77
2023/01/21 04:15:24;;;;;;;0.10;0.10;;;;;;;;;;5016735;28;20214;-77
2023/01/21 04:17:52;;;;;;;0.10;0.10;;;;;;;;;;5017197;28;20236;-77
2023/01/21 04:20:20;;;;;;;0.10;0.10;;;;;;;;;;5017132;28;20269;-77
2023/01/21 04:22:49;;;;;;;0.10;0.10;;;;;;;;;;5016860;28;20211;-78
2023/01/21 04:25:18;;;;;;;0.10;0.10;;;;;;;;;;5016820;28;20210;-77
2023/01/21 04:27:47;;;;;;;0.10;0.10;;;;;;;;;;5016703;28;20235;-77
2023/01/21 04:30:16;;;;;;;0.10;0.10;;;;;;;;;;5016971;28;20214;-78
2023/01/21 04:32:45;;;;;;;0.10;0.10;;;;;;;;;;5016529;28;20206;-77
2023/01/21 04:35:13;;;;;;;0.10;0.10;;;;;;;;;;5016762;28;20231;-77
2023/01/21 04:37:42;;;;;;;0.10;0.10;;;;;;;;;;5017190;28;20767;-77
2023/01/21 04:40:11;;;;;;;0.10;0.10;;;;;;;;;;5016821;28;20207;-77
2023/01/21 04:42:42;;;;;;;0.10;0.10;;;;;;;;;;5016598;28;20207;-77
2023/01/21 04:45:11;;;;;;;0.10;0.10;;;;;;;;;;5017158;28;20259;-77
2023/01/21 04:47:41;;;;;;;0.10;0.10;;;;;;;;;;5036453;28;20284;-77
2023/01/21 04:50:10;;;;;;;0.10;0.10;;;;;;;;;;5036240;28;20192;-77
2023/01/21 04:52:38;;;;;;;0.10;0.10;;;;;;;;;;5036173;28;20236;-77
2023/01/21 04:55:08;;;;;;;0.10;0.10;;;;;;;;;;5035981;28;20218;-78
2023/01/21 04:57:37;;;;;;;0.10;0.10;;;;;;;;;;5035633;28;20281;-78
2023/01/21 05:00:08;;;;;;;0.10;0.10;;;;;;;;;;5025700;28;20235;-78
2023/01/21 05:02:36;;;;;;;0.10;0.10;;;;;;;;;;5016357;28;20219;-78
2023/01/21 05:05:05;;;;;;;0.10;0.10;;;;;;;;;;5015767;28;20669;-77
2023/01/21 05:07:34;;;;;;;0.10;0.10;;;;;;;;;;5016276;28;20211;-78
2023/01/21 05:10:02;;;;;;;0.10;0.10;;;;;;;;;;5016022;28;20238;-78
2023/01/21 05:12:30;;;;;;;0.10;0.10;;;;;;;;;;5015571;28;20266;-78
2023/01/21 05:14:59;;;;;;;0.10;0.10;;;;;;;;;;5015750;28;20223;-78
2023/01/21 05:17:29;;;;;;;0.10;0.10;;;;;;;;;;5015967;28;20265;-78
2023/01/21 05:19:57;;;;;;;0.10;0.10;;;;;;;;;;5015844;28;20212;-78
2023/01/21 05:22:25;;;;;;;0.10;0.10;;;;;;;;;;5015254;28;20274;-78
2023/01/21 05:24:54;;;;;;;0.10;0.10;;;;;;;;;;5015361;28;20707;-78
2023/01/21 05:27:22;;;;;;;0.10;0.10;;;;;;;;;;5016275;28;20204;-78
2023/01/21 05:29:51;;;;;;;0.00;0.00;;;;;;;;;;5015645;28;20358;-78
2023/01/21 05:32:20;;;;;;;0.10;0.10;;;;;;;;;;5015467;28;20250;-78
2023/01/21 05:34:49;;;;;;;0.10;0.10;;;;;;;;;;5015376;28;20640;-78
2023/01/21 05:37:18;;;;;;;0.10;0.10;;;;;;;;;;5015605;28;20211;-78
2023/01/21 05:39:46;;;;;;;0.10;0.10;;;;;;;;;;5015211;28;20203;-78
2023/01/21 05:42:14;;;;;;;0.10;0.10;;;;;;;;;;5015448;28;20700;-78
2023/01/21 05:44:43;;;;;;;0.10;0.10;;;;;;;;;;5015211;28;20254;-78
2023/01/21 05:47:11;;;;;;;0.10;0.10;;;;;;;;;;5015226;28;20211;-79
2023/01/21 05:49:40;;;;;;;0.10;0.10;;;;;;;;;;5015492;28;20262;-78
2023/01/21 05:52:09;;;;;;;0.10;0.10;;;;;;;;;;5015154;28;20258;-77
2023/01/21 05:54:38;;;;;;;0.10;0.10;;;;;;;;;;5014453;28;20251;-78
2023/01/21 05:57:26;;;;;;;0.10;0.10;;;;;;;;;;5015367;28;20622;-78
2023/01/21 05:59:55;;;;;;;0.10;0.10;;;;;;;;;;5015159;28;20544;-78
2023/01/21 06:02:23;;;;;;;0.10;0.10;;;;;;;;;;5014887;28;20250;-78
2023/01/21 06:04:52;;;;;;;0.10;0.10;;;;;;;;;;5014153;28;20211;-77
2023/01/21 06:07:22;;;;;;;0.10;0.10;;;;;;;;;;5015502;28;20239;-77
2023/01/21 06:09:50;;;;;;;0.10;0.10;;;;;;;;;;5014616;28;20215;-77
2023/01/21 06:12:18;;;;;;;0.10;0.10;;;;;;;;;;5015899;28;20215;-77
2023/01/21 06:14:47;;;;;;;0.10;0.10;;;;;;;;;;5015357;28;20746;-77
2023/01/21 06:17:15;;;;;;;0.10;0.10;;;;;;;;;;5015264;28;20290;-77
2023/01/21 06:19:44;;;;;;;0.10;0.10;;;;;;;;;;5015337;28;20306;-77
2023/01/21 06:22:14;;;;;;;0.10;0.10;;;;;;;;;;5014986;28;20266;-77
2023/01/21 06:24:43;;;;;;;0.10;0.10;;;;;;;;;;5014979;28;20697;-77
2023/01/21 06:27:12;;;;;;;0.10;0.10;;;;;;;;;;5015042;28;20610;-78
2023/01/21 06:29:41;;;;;;;0.10;0.10;;;;;;;;;;5015213;28;20270;-77
2023/01/21 06:32:09;;;;;;;0.10;0.10;;;;;;;;;;5014751;28;20219;-77
2023/01/21 06:34:37;;;;;;;0.00;0.00;;;;;;;;;;5013907;28;20322;-77
2023/01/21 06:37:06;;;;;;;0.10;0.10;;;;;;;;;;5014289;28;20643;-77
2023/01/21 06:39:34;;;;;;;0.07;0.07;;;;;;;;;;5014526;28;20263;-77
2023/01/21 06:42:04;;;;;;;0.10;0.10;;;;;;;;;;5015138;28;20692;-77
2023/01/21 06:44:32;;;;;;;0.10;0.10;;;;;;;;;;5014429;28;20211;-78
2023/01/21 06:47:01;;;;;;;0.00;0.00;;;;;;;;;;5014282;28;20209;-77
2023/01/21 06:49:29;;;;;;;0.00;0.00;;;;;;;;;;5019929;28;20227;-77
2023/01/21 06:51:58;;;;;;;0.00;0.00;;;;;;;;;;5034393;28;20210;-77
2023/01/21 06:54:26;;;;;;;0.10;0.10;;;;;;;;;;5034005;28;20221;-77
2023/01/21 06:56:57;;;;;;;0.10;0.10;;;;;;;;;;5034343;28;20191;-77
2023/01/21 06:59:27;;;;;;;0.10;0.10;;;;;;;;;;5015333;28;20327;-77
2023/01/21 07:01:57;;;;;;;0.10;0.10;;;;;;;;;;5014935;28;20211;-76
2023/01/21 07:04:26;;;;;;;0.00;0.00;;;;;;;;;;5014797;28;20307;-77
2023/01/21 07:06:54;;;;;;;0.10;0.10;;;;;;;;;;5014966;28;20207;-76
2023/01/21 07:09:23;;;;;;;0.10;0.10;;;;;;;;;;5015131;28;20226;-77
2023/01/21 07:11:51;;;;;;;0.00;0.00;;;;;;;;;;5014592;28;20223;-77
2023/01/21 07:14:20;;;;;;;0.10;0.10;;;;;;;;;;5015064;28;20219;-78
2023/01/21 07:16:50;;;;;;;0.10;0.10;;;;;;;;;;5012923;28;20290;-76
2023/01/21 07:19:18;;;;;;;0.10;0.10;;;;;;;;;;5014196;28;20222;-76
2023/01/21 07:21:47;;;;;;;0.10;0.10;;;;;;;;;;5014501;28;20258;-77
2023/01/21 07:24:15;;;;;;;0.10;0.10;;;;;;;;;;5013821;28;20206;-77
2023/01/21 07:26:44;;;;;;;0.10;0.10;;;;;;;;;;5013975;28;20261;-77
2023/01/21 07:29:12;;;;;;;0.10;0.10;;;;;;;;;;5014170;28;20584;-77
2023/01/21 07:31:40;;;;;;;0.10;0.10;;;;;;;;;;5014504;28;20208;-77
2023/01/21 07:34:10;;;;;;;0.10;0.10;;;;;;;;;;5013697;28;20207;-77
2023/01/21 07:36:39;;;;;;;0.10;0.10;;;;;;;;;;5014464;28;20227;-77
2023/01/21 07:39:07;;;;;;;0.10;0.10;;;;;;;;;;5017082;28;20232;-77
2023/01/21 07:41:36;;;;;;;0.10;0.10;;;;;;;;;;5015045;28;20294;-77
2023/01/21 07:44:04;;;;;;;0.10;0.10;;;;;;;;;;5014050;28;20614;-76
2023/01/21 07:46:33;;;;;;;0.03;0.03;;;;;;;;;;5013239;28;20208;-77
2023/01/21 07:49:02;;;;;;;0.10;0.10;;;;;;;;;;5015172;28;20225;-78
2023/01/21 07:51:31;;;;;;;0.10;0.10;;;;;;;;;;5017159;28;20618;-77
2023/01/21 07:54:00;;;;;;;0.10;0.10;;;;;;;;;;5017321;28;20234;-77
2023/01/21 07:56:28;;;;;;;0.10;0.10;;;;;;;;;;5017086;28;20738;-76
2023/01/21 07:58:57;;;;;;;0.10;0.10;;;;;;;;;;5016498;28;20230;-76
2023/01/21 08:01:29;;;;;;;0.10;0.10;;;;;;;;;;5016882;28;20219;-76
2023/01/21 08:03:58;;;;;;;0.10;0.10;;;;;;;;;;5016922;28;20691;-77
2023/01/21 08:06:26;;;;;;;0.10;0.10;;;;;;;;;;5019711;28;20302;-77
2023/01/21 08:08:56;;;;;;;0.00;0.00;;;;;;;;;;5017393;28;20257;-77
2023/01/21 08:11:25;;;;;;;0.00;0.00;;;;;;;;;;5018258;28;20262;-77
2023/01/21 08:13:53;;;;;;;0.00;0.00;;;;;;;;;;5017619;28;20590;-77
2023/01/21 08:16:21;;;;;;;0.00;0.00;;;;;;;;;;5017402;28;20285;-77
2023/01/21 08:18:50;;;;;;;0.00;0.00;;;;;;;;;;5017608;28;20267;-77
2023/01/21 08:21:19;;;;;;;0.10;0.10;;;;;;;;;;5016568;28;20257;-77
2023/01/21 08:23:48;;;;;;;0.00;0.00;;;;;;;;;;5002667;28;20282;-77
2023/01/21 08:26:18;;;;;;;0.10;0.10;;;;;;;;;;5004774;28;20203;-77
2023/01/21 08:28:46;;;;;;;0.00;0.00;;;;;;;;;;5016676;28;20227;-77
2023/01/21 08:31:15;;;;;;;0.10;0.10;;;;;;;;;;5015761;28;20203;-77
2023/01/21 08:33:43;;;;;;;0.00;0.00;;;;;;;;;;5016334;28;20211;-77
2023/01/21 08:36:12;;;;;;;0.00;0.00;;;;;;;;;;5016185;28;20235;-77
2023/01/21 08:38:40;;;;;;;0.10;0.10;;;;;;;;;;5015976;28;20254;-77
2023/01/21 08:41:09;;;;;;;0.00;0.00;;;;;;;;;;5016658;28;20235;-77
2023/01/21 08:43:40;;;;;;;0.03;0.03;;;;;;;;;;5016317;28;20272;-76
2023/01/21 08:46:08;;;;;;;0.00;0.00;;;;;;;;;;5016451;28;20198;-77
2023/01/21 08:48:37;;;;;;;0.00;0.00;;;;;;;;;;5016649;28;20215;-77
2023/01/21 08:51:06;;;;;;;0.00;0.00;;;;;;;;;;5024056;28;20207;-77
2023/01/21 08:53:35;;;;;;;0.10;0.10;;;;;;;;;;5015952;28;20289;-77
2023/01/21 08:56:04;;;;;;;0.00;0.00;;;;;;;;;;5015896;28;20219;-77
2023/01/21 08:58:32;;;;;;;0.00;0.00;;;;;;;;;;5015988;28;20258;-77
2023/01/21 09:01:07;;;;;;;0.10;0.10;;;;;;;;;;5015540;28;20246;-77
2023/01/21 09:03:36;;;;;;;0.00;0.00;;;;;;;;;;5016900;28;20207;-77
2023/01/21 09:06:05;;;;;;;0.00;0.00;;;;;;;;;;5027997;28;20253;-77
2023/01/21 09:08:35;;;;;;;0.00;0.00;;;;;;;;;;5021685;28;20258;-77
2023/01/21 09:11:05;;;;;;;0.10;0.10;;;;;;;;;;5015538;28;20295;-77
2023/01/21 09:13:36;;;;;;;0.00;0.00;;;;;;;;;;5016059;28;20196;-77
2023/01/21 09:16:09;;;;;;;0.00;0.00;;;;;;;;;;5015997;28;20240;-77
2023/01/21 09:18:39;;;;;;;0.00;0.00;;;;;;;;;;5023938;28;20229;-77
2023/01/21 09:21:08;;;;;;;0.10;0.10;;;;;;;;;;5035369;28;20222;-77
2023/01/21 09:23:37;;;;;;;0.00;0.00;;;;;;;;;;5035197;28;20211;-77
2023/01/21 09:26:06;;;;;;;0.00;0.00;;;;;;;;;;5016427;28;20215;-77
2023/01/21 09:28:35;;;;;;;0.00;0.00;;;;;;;;;;5015812;28;20235;-77
2023/01/21 09:31:05;;;;;;;0.00;0.00;;;;;;;;;;5015129;28;20211;-77
2023/01/21 09:33:36;;;;;;;0.00;0.00;;;;;;;;;;5014813;28;20215;-78
2023/01/21 09:36:06;;;;;;;0.00;0.00;;;;;;;;;;5010964;28;20293;-77
2023/01/21 09:38:35;;;;;;;0.00;0.00;;;;;;;;;;5015283;28;20228;-77
2023/01/21 09:41:05;;;;;;;0.10;0.10;;;;;;;;;;5014256;28;20553;-77
2023/01/21 09:43:36;;;;;;;0.10;0.10;;;;;;;;;;5011091;28;20200;-77
2023/01/21 09:46:05;;;;;;;0.10;0.10;;;;;;;;;;5014587;28;20232;-77
2023/01/21 09:48:37;;;;;;;0.00;0.00;;;;;;;;;;5009731;28;20239;-77
2023/01/21 09:51:07;;;;;;;0.00;0.00;;;;;;;;;;5010126;28;20216;-77
2023/01/21 09:53:38;;;;;;;0.10;0.10;;;;;;;;;;5015150;28;20203;-77
2023/01/21 09:56:11;;;;;;;0.10;0.10;;;;;;;;;;5015259;28;20196;-78
2023/01/21 09:58:42;;;;;;;0.00;0.00;;;;;;;;;;5014362;28;20596;-77
2023/01/21 10:01:13;;;;;;;0.00;0.00;;;;;;;;;;5012986;28;20302;-77
2023/01/21 10:03:47;;;;;;;0.00;0.00;;;;;;;;;;5014341;28;20583;-78
2023/01/21 10:06:26;;;;;;;0.10;0.10;;;;;;;;;;5013190;28;20204;-77
2023/01/21 10:09:21;;;;;;;0.03;0.03;;;;;;;;;;5009107;28;20309;-77
2023/01/21 10:12:08;;;;;;;0.10;0.10;;;;;;;;;;5009318;28;20195;-77
2023/01/21 10:14:48;;;;;;;0.10;0.10;;;;;;;;;;5027932;28;20260;-77
2023/01/21 10:17:22;;;;;;;0.00;0.00;;;;;;;;;;5033733;28;20231;-77
2023/01/21 10:19:54;;;;;;;0.00;0.00;;;;;;;;;;5033590;28;20237;-77
2023/01/21 10:22:25;;;;;;;0.00;0.00;;;;;;;;;;5024500;28;20246;-77
2023/01/21 10:24:56;;;;;;;0.00;0.00;;;;;;;;;;5014163;28;20224;-77
2023/01/21 10:27:25;;;;;;;0.10;0.10;;;;;;;;;;5014131;28;20283;-77
2023/01/21 10:29:56;;;;;;;0.10;0.10;;;;;;;;;;5013426;28;20265;-78
2023/01/21 10:32:26;;;;;;;0.00;0.00;;;;;;;;;;5013725;28;20211;-77
2023/01/21 10:34:57;;;;;;;0.10;0.10;;;;;;;;;;5013739;28;20641;-77
2023/01/21 10:37:30;;;;;;;0.00;0.00;;;;;;;;;;5014020;28;20208;-77
2023/01/21 10:40:04;;;;;;;0.00;0.00;;;;;;;;;;5014360;28;20323;-77
2023/01/21 10:42:47;;;;;;;0.03;0.03;;;;;;;;;;5014578;28;20203;-78
2023/01/21 10:45:22;;;;;;;0.00;0.00;;;;;;;;;;5014222;28;20230;-77
2023/01/21 10:47:53;;;;;;;0.00;0.00;;;;;;;;;;5014627;28;20672;-78
2023/01/21 10:50:35;;;;;;;0.10;0.10;;;;;;;;;;5013494;28;20197;-78
2023/01/21 10:53:08;;;;;;;0.00;0.00;;;;;;;;;;5011263;28;20258;-78
2023/01/21 10:55:42;;;;;;;0.00;0.00;;;;;;;;;;5014494;28;20604;-77
2023/01/21 10:58:18;;;;;;;0.00;0.00;;;;;;;;;;5004162;28;20227;-77
2023/01/21 11:00:47;;;;;;;0.00;0.00;;;;;;;;;;5005802;28;20200;-77
2023/01/21 11:03:17;;;;;;;0.10;0.10;;;;;;;;;;5013773;28;21051;-77
2023/01/21 11:05:47;;;;;;;0.00;0.00;;;;;;;;;;5016207;28;20194;-77
2023/01/21 11:08:19;;;;;;;0.00;0.00;;;;;;;;;;5019850;28;20219;-77
2023/01/21 11:10:52;;;;;;;0.10;0.10;;;;;;;;;;5012415;28;20685;-78
2023/01/21 11:13:20;;;;;;;0.00;0.00;;;;;;;;;;5013190;28;20212;-78
2023/01/21 11:15:50;;;;;;;0.00;0.00;;;;;;;;;;5012441;28;20204;-78
2023/01/21 11:18:26;;;;;;;0.00;0.00;;;;;;;;;;5012803;28;20238;-78
2023/01/21 11:20:59;;;;;;;0.00;0.00;;;;;;;;;;5014076;28;20242;-78
2023/01/21 11:23:30;;;;;;;0.00;0.00;;;;;;;;;;5015172;28;20208;-79
2023/01/21 11:26:02;;;;;;;0.00;0.00;;;;;;;;;;5017362;28;20612;-80
2023/01/21 11:28:30;;;;;;;0.00;0.00;;;;;;;;;;5017091;28;20725;-80
2023/01/21 11:31:11;;;;;;;0.00;0.00;;;;;;;;;;5016750;28;20254;-81
2023/01/21 11:33:40;;;;;;;0.00;0.00;;;;;;;;;;5017365;28;20243;-81
2023/01/21 11:36:17;;;;;;;0.03;0.03;;;;;;;;;;5016945;28;20259;-80
2023/01/21 11:38:46;;;;;;;0.10;0.10;;;;;;;;;;5017027;28;20228;-81
2023/01/21 11:41:16;;;;;;;0.00;0.00;;;;;;;;;;5016549;28;20208;-81
2023/01/21 11:43:46;;;;;;;0.10;0.10;;;;;;;;;;5016766;28;20211;-82
2023/01/21 11:46:27;;;;;;;0.10;0.10;;;;;;;;;;5016706;28;20205;-80
2023/01/21 11:48:57;;;;;;;0.10;0.10;;;;;;;;;;5015464;28;20289;-79
2023/01/21 11:51:29;;;;;;;0.10;0.10;;;;;;;;;;5016682;28;20280;-81
2023/01/21 11:54:08;;;;;;;0.10;0.10;;;;;;;;;;5016074;28;20208;-80
2023/01/21 11:56:37;;;;;;;0.03;0.03;;;;;;;;;;5016481;28;20215;-81
2023/01/21 11:59:12;;;;;;;0.00;0.00;;;;;;;;;;5015718;28;20247;-80
2023/01/21 12:01:40;;;;;;;0.00;0.00;;;;;;;;;;5016413;28;20216;-80
2023/01/21 12:04:15;;;;;;;0.00;0.00;;;;;;;;;;5015866;28;20591;-81
2023/01/21 12:06:50;;;;;;;0.00;0.00;;;;;;;;;;5016747;28;20200;-80
2023/01/21 12:09:19;;;;;;;0.10;0.10;;;;;;;;;;4996598;28;20694;-81
2023/01/21 12:12:01;;;;;;;0.00;0.00;;;;;;;;;;4996200;28;20210;-81
2023/01/21 12:14:36;;;;;;;0.00;0.00;;;;;;;;;;5004469;28;20681;-81
2023/01/21 12:17:10;;;;;;;0.10;0.10;;;;;;;;;;5015464;28;20228;-81
2023/01/21 12:19:46;;;;;;;0.10;0.10;;;;;;;;;;5016500;28;20689;-81
2023/01/21 12:22:36;;;;;;;0.10;0.10;;;;;;;;;;5015949;28;20196;-80
2023/01/21 12:25:15;;;;;;;0.10;0.10;;;;;;;;;;5014237;28;20269;-81
2023/01/21 12:27:47;;;;;;;0.10;0.10;;;;;;;;;;5015960;28;20221;-81
2023/01/21 12:30:24;;;;;;;0.00;0.00;;;;;;;;;;5015552;28;20185;-81
2023/01/21 12:33:01;;;;;;;0.00;0.00;;;;;;;;;;5014779;28;20192;-80
2023/01/21 12:35:33;;;;;;;0.10;0.10;;;;;;;;;;5013534;28;20221;-80
2023/01/21 12:38:04;;;;;;;0.00;0.00;;;;;;;;;;5015708;28;20286;-80
2023/01/21 12:40:35;;;;;;;0.00;0.00;;;;;;;;;;5015480;28;20216;-81
2023/01/21 12:43:06;;;;;;;0.10;0.10;;;;;;;;;;5015392;28;20561;-80
2023/01/21 12:45:37;;;;;;;0.00;0.00;;;;;;;;;;5015173;28;20223;-80
2023/01/21 12:48:10;;;;;;;0.00;0.00;;;;;;;;;;5015467;28;20573;-79
2023/01/21 12:50:40;;;;;;;0.00;0.00;;;;;;;;;;5015485;28;20271;-80
2023/01/21 12:53:16;;;;;;;0.10;0.10;;;;;;;;;;5015438;28;20215;-79
2023/01/21 12:55:56;;;;;;;0.10;0.10;;;;;;;;;;5015380;28;20605;-80
2023/01/21 12:58:26;;;;;;;0.00;0.00;;;;;;;;;;5015280;28;20639;-80
2023/01/21 13:00:55;;;;;;;0.00;0.00;;;;;;;;;;5015134;28;20204;-80
2023/01/21 13:03:27;;;;;;;0.10;0.10;;;;;;;;;;5014996;28;20258;-79
2023/01/21 13:05:59;;;;;;;0.10;0.10;;;;;;;;;;5014875;28;20192;-79
2023/01/21 13:08:45;;;;;;;0.00;0.00;;;;;;;;;;5015355;28;20652;-79
2023/01/21 13:11:18;;;;;;;0.10;0.10;;;;;;;;;;5015189;28;20660;-80
2023/01/21 13:13:51;;;;;;;0.10;0.10;;;;;;;;;;5013615;28;20228;-79
2023/01/21 13:16:19;;;;;;;0.00;0.00;;;;;;;;;;5013117;28;20188;-78
2023/01/21 13:18:51;;;;;;;0.10;0.10;;;;;;;;;;5012948;28;20239;-79
2023/01/21 13:21:25;;;;;;;0.00;0.00;;;;;;;;;;5012954;28;20201;-79
2023/01/21 13:23:58;;;;;;;0.10;0.10;;;;;;;;;;5013275;28;20622;-79
2023/01/21 13:26:33;;;;;;;0.10;0.10;;;;;;;;;;5013373;28;20184;-79
2023/01/21 13:29:04;;;;;;;0.10;0.10;;;;;;;;;;5013713;28;20220;-79
2023/01/21 13:31:36;;;;;;;0.10;0.10;;;;;;;;;;5013617;28;20193;-79
2023/01/21 13:34:09;;;;;;;0.10;0.10;;;;;;;;;;5013638;28;20544;-78
2023/01/21 13:36:45;;;;;;;0.10;0.10;;;;;;;;;;5013246;28;20635;-78
2023/01/21 13:39:18;;;;;;;0.00;0.00;;;;;;;;;;5013146;28;20517;-79
2023/01/21 13:41:52;;;;;;;0.10;0.10;;;;;;;;;;5012596;28;20672;-78
2023/01/21 13:44:36;;;;;;;0.00;0.00;;;;;;;;;;5013086;28;20534;-78
2023/01/21 13:47:10;;;;;;;0.10;0.10;;;;;;;;;;5012761;28;20562;-79
2023/01/21 13:49:50;;;;;;;0.03;0.03;;;;;;;;;;5012527;28;20227;-79
2023/01/21 13:52:22;;;;;;;0.10;0.10;;;;;;;;;;5012987;28;20200;-79
2023/01/21 13:54:57;;;;;;;0.10;0.10;;;;;;;;;;5012842;28;20688;-79
2023/01/21 13:57:40;;;;;;;0.10;0.10;;;;;;;;;;5013127;28;20704;-79
2023/01/21 14:00:13;;;;;;;0.10;0.10;;;;;;;;;;5012524;28;20256;-79
2023/01/21 14:02:46;;;;;;;0.10;0.10;;;;;;;;;;5013035;28;20231;-79
2023/01/21 14:05:17;;;;;;;0.00;0.00;;;;;;;;;;5012461;28;20216;-79
2023/01/21 14:07:46;;;;;;;0.10;0.10;;;;;;;;;;5012913;28;20749;-79
2023/01/21 14:10:18;;;;;;;0.10;0.10;;;;;;;;;;5012427;28;20219;-79
2023/01/21 14:12:57;;;;;;;0.10;0.10;;;;;;;;;;5012730;28;20196;-79
2023/01/21 14:15:34;;;;;;;0.00;0.00;;;;;;;;;;5012928;28;20246;-79
2023/01/21 14:18:13;;;;;;;0.10;0.10;;;;;;;;;;5012817;28;20760;-79
2023/01/21 14:20:49;;;;;;;0.10;0.10;;;;;;;;;;5012091;28;20188;-79
2023/01/21 14:23:42;;;;;;;0.10;0.10;;;;;;;;;;5012777;28;20291;-79
2023/01/21 14:26:16;;;;;;;0.10;0.10;;;;;;;;;;5006648;28;20627;-80
2023/01/21 14:28:50;;;;;;;0.00;0.00;;;;;;;;;;5012559;28;20595;-80
2023/01/21 14:31:20;;;;;;;0.00;0.00;;;;;;;;;;5012266;28;20200;-79
2023/01/21 14:33:52;;;;;;;0.10;0.10;;;;;;;;;;5012887;28;20645;-79
2023/01/21 14:36:23;;;;;;;0.10;0.10;;;;;;;;;;5012392;28;20224;-79
2023/01/21 14:38:55;;;;;;;0.00;0.00;;;;;;;;;;5012350;28;20235;-79
2023/01/21 14:41:24;;;;;;;0.00;0.00;;;;;;;;;;5012715;28;20201;-79
2023/01/21 14:43:54;;;;;;;0.00;0.00;;;;;;;;;;5012212;28;20208;-78
2023/01/21 14:46:27;;;;;;;0.07;0.07;;;;;;;;;;5012245;28;20247;-79
2023/01/21 14:48:57;;;;;;;0.00;0.00;;;;;;;;;;5012544;28;20225;-79
2023/01/21 14:51:27;;;;;;;0.10;0.10;;;;;;;;;;5012543;28;20189;-79
2023/01/21 14:54:00;;;;;;;0.00;0.00;;;;;;;;;;5012468;28;20199;-79
2023/01/21 14:56:30;;;;;;;0.00;0.00;;;;;;;;;;5012265;28;20199;-78
2023/01/21 14:59:02;;;;;;;0.10;0.10;;;;;;;;;;5015099;28;20693;-78
2023/01/21 15:01:32;;;;;;;0.00;0.00;;;;;;;;;;5016300;28;20857;-78
2023/01/21 15:04:03;;;;;;;0.00;0.00;;;;;;;;;;5016210;28;20800;-79
2023/01/21 15:06:36;;;;;;;0.00;0.00;;;;;;;;;;5016426;28;20246;-79
2023/01/21 15:09:04;;;;;;;0.07;0.07;;;;;;;;;;5015862;28;20267;-78